Time;durP1;ratioP1;P1;durP2;ratioP2;P2;SDS_P1;SDS_P2;PMS_P1;PMS_P2;Temp;Humidity;BMP_temperature;BMP_pressure;BME280_temperature;BME280_humidity;BME280_pressure;Samples;Min_cycle;Max_cycle;Signal;HPM_P1;HPM_P2
2022/07/19 00:02:08;;;;;;;13.98;2.50;;;25.10;96.70;;;;;;5037609;28;20167;-82
2022/07/19 00:04:34;;;;;;;8.18;2.80;;;25.00;97.00;;;;;;5055551;28;20163;-81
2022/07/19 00:07:00;;;;;;;2.78;2.58;;;24.90;97.10;;;;;;5037416;28;20182;-81
2022/07/19 00:09:26;;;;;;;4.97;2.40;;;25.00;97.10;;;;;;5037387;28;20175;-82
2022/07/19 00:11:53;;;;;;;5.47;2.67;;;25.00;97.20;;;;;;5037484;28;20301;-81
2022/07/19 00:14:19;;;;;;;7.60;3.17;;;24.90;97.30;;;;;;5056099;28;20290;-81
2022/07/19 00:16:44;;;;;;;2.85;2.60;;;24.90;97.60;;;;;;5055175;28;20171;-81
2022/07/19 00:19:10;;;;;;;3.65;2.33;;;24.70;97.90;;;;;;5055380;28;20163;-81
2022/07/19 00:21:36;;;;;;;5.10;2.88;;;24.70;98.10;;;;;;5055077;28;20207;-81
2022/07/19 00:24:01;;;;;;;15.05;3.20;;;24.70;98.10;;;;;;5055294;28;20573;-83
2022/07/19 00:26:29;;;;;;;13.50;2.88;;;24.80;98.10;;;;;;5055521;28;20221;-83
2022/07/19 00:28:55;;;;;;;8.35;2.50;;;24.70;98.20;;;;;;5055342;28;20615;-83
2022/07/19 00:31:22;;;;;;;3.55;2.33;;;24.70;98.30;;;;;;5037512;28;20210;-84
2022/07/19 00:33:48;;;;;;;3.97;2.55;;;24.60;98.20;;;;;;5037381;28;20167;-83
2022/07/19 00:36:14;;;;;;;7.22;2.75;;;24.80;98.10;;;;;;5037310;28;20229;-83
2022/07/19 00:38:40;;;;;;;6.57;2.25;;;24.70;98.10;;;;;;5042988;28;20250;-82
2022/07/19 00:41:06;;;;;;;2.38;2.00;;;24.80;98.20;;;;;;5070037;28;20199;-80
2022/07/19 00:43:31;;;;;;;5.93;2.97;;;24.70;98.20;;;;;;5080231;28;20178;-82
2022/07/19 00:45:57;;;;;;;6.03;2.83;;;24.60;98.30;;;;;;5052379;28;20183;-84
2022/07/19 00:48:23;;;;;;;7.05;2.75;;;24.40;98.90;;;;;;5038956;28;20194;-83
2022/07/19 00:50:49;;;;;;;16.67;2.92;;;24.30;99.00;;;;;;5053959;28;20195;-84
2022/07/19 00:53:16;;;;;;;5.38;3.05;;;24.20;99.20;;;;;;5036959;28;20207;-83
2022/07/19 00:55:44;;;;;;;5.30;2.75;;;24.10;99.50;;;;;;5054569;28;20170;-82
2022/07/19 00:58:11;;;;;;;7.50;2.60;;;24.10;99.60;;;;;;5036711;28;20175;-84
2022/07/19 01:00:38;;;;;;;6.07;2.33;;;24.20;99.40;;;;;;5036662;28;20181;-85
2022/07/19 01:03:05;;;;;;;7.13;2.30;;;24.10;99.60;;;;;;5036774;28;20632;-84
2022/07/19 01:05:31;;;;;;;3.55;2.28;;;24.20;99.30;;;;;;5036739;28;20617;-82
2022/07/19 01:07:57;;;;;;;4.10;2.65;;;24.20;99.30;;;;;;5054832;28;20345;-83
2022/07/19 01:10:22;;;;;;;13.25;2.65;;;24.10;99.40;;;;;;5054425;28;20215;-83
2022/07/19 01:12:48;;;;;;;7.07;2.72;;;24.10;99.30;;;;;;5036357;28;20305;-82
2022/07/19 01:15:20;;;;;;;6.75;2.38;;;24.10;99.90;;;;;;5054264;28;20167;-84
2022/07/19 01:17:46;;;;;;;10.45;2.83;;;23.90;99.70;;;;;;5053968;28;20659;-83
2022/07/19 01:20:13;;;;;;;5.07;2.17;;;24.00;99.60;;;;;;5036417;28;20224;-83
2022/07/19 01:22:41;;;;;;;5.07;2.75;;;23.90;99.90;;;;;;5054174;28;20186;-83
2022/07/19 01:25:07;;;;;;;7.95;2.22;;;24.00;99.80;;;;;;5054206;28;20167;-82
2022/07/19 01:27:47;;;;;;;6.60;2.33;;;24.00;99.80;;;;;;5040323;28;20175;-81
2022/07/19 01:30:19;;;;;;;2.65;2.33;;;23.90;99.90;;;;;;5039328;28;20218;-84
2022/07/19 01:32:45;;;;;;;3.42;2.20;;;23.90;99.90;;;;;;5039048;28;20206;-83
2022/07/19 01:35:11;;;;;;;5.68;3.08;;;23.90;99.90;;;;;;5064444;28;20178;-83
2022/07/19 01:37:38;;;;;;;16.38;3.13;;;23.90;99.90;;;;;;5039724;28;20580;-84
2022/07/19 01:40:05;;;;;;;5.45;2.55;;;23.90;99.90;;;;;;5044520;28;20233;-82
2022/07/19 01:42:30;;;;;;;3.05;2.67;;;23.90;99.90;;;;;;5063336;28;20163;-83
2022/07/19 01:44:57;;;;;;;5.30;2.70;;;23.90;99.90;;;;;;5067798;28;20265;-82
2022/07/19 01:47:23;;;;;;;4.13;2.28;;;23.80;99.90;;;;;;5062843;28;20196;-83
2022/07/19 01:49:48;;;;;;;6.40;2.55;;;23.80;99.90;;;;;;5050568;28;20211;-82
2022/07/19 01:52:14;;;;;;;8.55;2.53;;;23.90;99.90;;;;;;5057770;28;20199;-81
2022/07/19 01:54:40;;;;;;;3.47;2.10;;;23.80;99.90;;;;;;5041595;28;20230;-83
2022/07/19 01:57:06;;;;;;;5.75;2.30;;;23.70;99.90;;;;;;5038182;28;20175;-83
2022/07/19 01:59:31;;;;;;;2.60;2.30;;;23.70;99.90;;;;;;5060033;28;20191;-83
2022/07/19 02:01:57;;;;;;;8.75;2.70;;;23.60;99.90;;;;;;5064268;28;20175;-83
2022/07/19 02:04:23;;;;;;;8.00;2.17;;;23.50;99.90;;;;;;5058383;28;20172;-84
2022/07/19 02:06:51;;;;;;;4.60;2.50;;;23.50;99.90;;;;;;5060436;28;20240;-84
2022/07/19 02:09:17;;;;;;;3.65;2.70;;;23.60;99.90;;;;;;5043058;28;20167;-84
2022/07/19 02:11:42;;;;;;;14.32;2.85;;;23.60;99.90;;;;;;5056515;28;20203;-82
2022/07/19 02:14:09;;;;;;;10.80;2.83;;;23.60;99.90;;;;;;5039333;28;20170;-84
2022/07/19 02:16:39;;;;;;;6.03;2.45;;;23.70;99.90;;;;;;5057746;28;20167;-84
2022/07/19 02:19:28;;;;;;;11.93;2.60;;;23.60;99.90;;;;;;5040646;28;20179;-82
2022/07/19 02:21:54;;;;;;;9.10;2.35;;;23.60;99.90;;;;;;5045166;28;20191;-83
2022/07/19 02:24:19;;;;;;;4.57;2.60;;;23.60;99.90;;;;;;5058398;28;20167;-84
2022/07/19 02:26:48;;;;;;;6.75;2.38;;;23.60;99.90;;;;;;5058327;28;20204;-83
2022/07/19 02:29:14;;;;;;;6.85;3.28;;;23.60;99.90;;;;;;5040236;28;20182;-84
2022/07/19 02:31:44;;;;;;;6.10;2.80;;;23.50;99.90;;;;;;5058632;28;20206;-82
2022/07/19 02:34:09;;;;;;;11.25;2.50;;;23.50;99.90;;;;;;5066770;28;20170;-82
2022/07/19 02:36:35;;;;;;;3.15;2.50;;;23.50;99.90;;;;;;5050992;28;20171;-82
2022/07/19 02:39:01;;;;;;;8.40;2.85;;;23.40;99.90;;;;;;5067274;28;20147;-82
2022/07/19 02:41:26;;;;;;;3.35;1.90;;;23.50;99.90;;;;;;5049691;28;20660;-81
2022/07/19 02:43:52;;;;;;;5.13;2.05;;;23.50;99.90;;;;;;5049275;28;20182;-81
2022/07/19 02:46:17;;;;;;;10.60;2.72;;;23.30;99.90;;;;;;5066797;28;20168;-82
2022/07/19 02:48:43;;;;;;;8.10;2.75;;;23.30;99.90;;;;;;5073043;28;20178;-80
2022/07/19 02:51:12;;;;;;;6.55;2.83;;;23.40;99.90;;;;;;5060074;28;20202;-81
2022/07/19 02:53:38;;;;;;;14.43;2.72;;;23.30;99.90;;;;;;5076974;28;20163;-83
2022/07/19 02:56:08;;;;;;;9.50;2.13;;;23.30;99.90;;;;;;5077780;28;20159;-82
2022/07/19 02:58:34;;;;;;;3.08;2.15;;;23.30;99.90;;;;;;5043750;28;20194;-83
2022/07/19 03:00:59;;;;;;;3.72;2.55;;;23.30;99.90;;;;;;5077383;28;20175;-81
2022/07/19 03:03:47;;;;;;;3.63;2.10;;;23.30;99.90;;;;;;5074514;28;20267;-82
2022/07/19 03:06:13;;;;;;;7.70;2.25;;;23.30;99.90;;;;;;5057449;28;20179;-83
2022/07/19 03:08:39;;;;;;;5.15;2.38;;;23.20;99.90;;;;;;5046605;28;20175;-82
2022/07/19 03:11:05;;;;;;;5.05;1.90;;;23.10;99.90;;;;;;5053854;28;20183;-83
2022/07/19 03:13:30;;;;;;;7.65;2.97;;;23.10;99.90;;;;;;5060972;28;20166;-81
2022/07/19 03:15:56;;;;;;;4.10;2.13;;;23.00;99.90;;;;;;5081330;28;20167;-82
2022/07/19 03:18:22;;;;;;;12.20;3.03;;;23.00;99.90;;;;;;5077492;28;20178;-84
2022/07/19 03:20:47;;;;;;;3.15;2.85;;;23.00;99.90;;;;;;5060893;28;20665;-82
2022/07/19 03:23:13;;;;;;;3.13;2.28;;;23.00;99.90;;;;;;5058649;28;20698;-83
2022/07/19 03:25:39;;;;;;;5.60;2.88;;;23.00;99.90;;;;;;5058196;28;20264;-81
2022/07/19 03:28:04;;;;;;;5.82;2.75;;;23.00;99.90;;;;;;5058664;28;20178;-82
2022/07/19 03:30:31;;;;;;;9.27;2.58;;;22.90;99.90;;;;;;5040438;28;20194;-82
2022/07/19 03:32:57;;;;;;;2.47;2.10;;;22.90;99.90;;;;;;5058480;28;20207;-81
2022/07/19 03:35:23;;;;;;;4.25;2.10;;;22.90;99.90;;;;;;5058568;28;20210;-83
2022/07/19 03:37:49;;;;;;;7.57;2.30;;;23.00;99.90;;;;;;5058543;28;20175;-82
2022/07/19 03:40:14;;;;;;;2.65;2.25;;;23.10;99.90;;;;;;5057268;28;20193;-82
2022/07/19 03:42:40;;;;;;;5.03;2.65;;;23.00;99.90;;;;;;5057545;28;20159;-84
2022/07/19 03:45:06;;;;;;;9.45;2.25;;;22.90;99.90;;;;;;5041974;28;20238;-82
2022/07/19 03:47:32;;;;;;;3.30;2.08;;;22.90;99.90;;;;;;5021920;28;20266;-83
2022/07/19 03:49:58;;;;;;;9.65;2.33;;;23.00;99.90;;;;;;5055805;28;20677;-83
2022/07/19 03:52:24;;;;;;;9.18;2.65;;;23.00;99.90;;;;;;5055955;28;20211;-82
2022/07/19 03:54:50;;;;;;;5.15;2.55;;;22.90;99.90;;;;;;5038713;28;20163;-82
2022/07/19 03:57:16;;;;;;;6.85;2.45;;;22.90;99.90;;;;;;5055484;28;20163;-82
2022/07/19 03:59:41;;;;;;;4.18;2.50;;;22.90;99.90;;;;;;5038070;28;20777;-84
2022/07/19 04:02:07;;;;;;;9.27;2.30;;;23.00;99.90;;;;;;5037912;28;20175;-84
2022/07/19 04:04:33;;;;;;;6.57;2.78;;;23.00;99.90;;;;;;5055721;28;20635;-83
2022/07/19 04:06:59;;;;;;;2.80;2.47;;;23.00;99.90;;;;;;5056152;28;20173;-83
2022/07/19 04:09:24;;;;;;;6.93;3.03;;;23.10;99.90;;;;;;5038005;28;20166;-82
2022/07/19 04:11:50;;;;;;;7.50;2.45;;;23.10;99.90;;;;;;5055494;28;20671;-83
2022/07/19 04:14:16;;;;;;;4.68;2.03;;;22.90;99.90;;;;;;5055248;28;20246;-81
2022/07/19 04:16:41;;;;;;;8.35;2.35;;;23.10;99.90;;;;;;5055432;28;20174;-83
2022/07/19 04:19:07;;;;;;;8.13;2.45;;;23.20;99.90;;;;;;5055590;28;20286;-84
2022/07/19 04:21:32;;;;;;;16.90;2.47;;;23.20;99.90;;;;;;5055263;28;20203;-84
2022/07/19 04:23:58;;;;;;;8.18;2.53;;;23.20;99.90;;;;;;5055449;28;20176;-83
2022/07/19 04:26:23;;;;;;;13.00;2.58;;;23.30;99.90;;;;;;5055066;28;20612;-83
2022/07/19 04:28:49;;;;;;;3.85;2.65;;;23.30;99.90;;;;;;5037479;28;20262;-83
2022/07/19 04:31:16;;;;;;;12.30;2.90;;;23.40;99.90;;;;;;5055014;28;20211;-82
2022/07/19 04:33:42;;;;;;;8.38;2.55;;;23.40;99.90;;;;;;5037424;28;20182;-83
2022/07/19 04:36:08;;;;;;;14.90;2.70;;;23.30;99.90;;;;;;5054769;28;20172;-83
2022/07/19 04:38:33;;;;;;;5.78;2.55;;;23.30;99.90;;;;;;5055104;28;20222;-84
2022/07/19 04:40:59;;;;;;;6.90;2.70;;;23.40;99.90;;;;;;5055049;28;20227;-82
2022/07/19 04:43:25;;;;;;;4.50;2.70;;;23.60;99.90;;;;;;5055036;28;20616;-81
2022/07/19 04:45:51;;;;;;;15.95;2.67;;;23.70;99.90;;;;;;5036986;28;20188;-83
2022/07/19 04:48:16;;;;;;;37.80;4.68;;;23.80;99.90;;;;;;5037496;28;20179;-82
2022/07/19 04:50:42;;;;;;;28.55;3.88;;;23.90;99.90;;;;;;5036737;28;20198;-82
2022/07/19 04:53:08;;;;;;;35.22;4.00;;;23.90;99.90;;;;;;5054857;28;20286;-83
2022/07/19 04:55:35;;;;;;;16.48;3.03;;;23.90;99.90;;;;;;5036989;28;20171;-84
2022/07/19 04:58:01;;;;;;;9.75;3.28;;;23.90;99.90;;;;;;5054781;28;20167;-82
2022/07/19 05:00:27;;;;;;;8.38;2.33;;;23.90;99.90;;;;;;5054180;28;20190;-82
2022/07/19 05:02:54;;;;;;;8.18;2.78;;;24.00;99.90;;;;;;5036914;28;20213;-82
2022/07/19 05:05:20;;;;;;;17.27;2.83;;;24.10;99.90;;;;;;5036876;28;20175;-83
2022/07/19 05:07:46;;;;;;;18.02;2.92;;;24.30;99.90;;;;;;5037088;28;20254;-81
2022/07/19 05:10:11;;;;;;;18.77;3.85;;;24.40;99.90;;;;;;5036456;28;20191;-82
2022/07/19 05:12:38;;;;;;;9.35;3.17;;;24.50;99.90;;;;;;5054159;28;20214;-83
2022/07/19 05:15:04;;;;;;;17.30;3.80;;;24.60;99.90;;;;;;5036609;28;20278;-83
2022/07/19 05:17:30;;;;;;;25.80;3.88;;;24.70;99.90;;;;;;5054887;28;20171;-82
2022/07/19 05:20:01;;;;;;;8.38;2.78;;;24.80;99.90;;;;;;5054391;28;20600;-82
2022/07/19 05:22:26;;;;;;;7.97;2.90;;;24.80;99.90;;;;;;5053847;28;20191;-82
2022/07/19 05:24:53;;;;;;;5.57;2.63;;;24.90;99.90;;;;;;5054081;28;20624;-82
2022/07/19 05:27:20;;;;;;;18.25;3.25;;;25.00;99.90;;;;;;5036450;28;20638;-82
2022/07/19 05:29:45;;;;;;;5.57;2.92;;;25.10;99.90;;;;;;5054086;28;20737;-84
2022/07/19 05:32:11;;;;;;;11.15;2.50;;;25.20;99.90;;;;;;5053806;28;20240;-84
2022/07/19 05:34:37;;;;;;;6.78;3.20;;;25.20;99.90;;;;;;5053875;28;20186;-83
2022/07/19 05:37:03;;;;;;;24.65;3.38;;;25.30;99.90;;;;;;5035568;28;20647;-83
2022/07/19 05:39:28;;;;;;;12.73;2.90;;;25.20;99.90;;;;;;5064661;28;20167;-82
2022/07/19 05:41:54;;;;;;;11.98;2.90;;;25.40;99.90;;;;;;5055582;28;20182;-82
2022/07/19 05:44:19;;;;;;;14.93;3.67;;;25.50;99.90;;;;;;5078843;28;20152;-85
2022/07/19 05:46:45;;;;;;;11.48;3.58;;;25.50;99.90;;;;;;5036275;28;20171;-84
2022/07/19 05:49:11;;;;;;;9.13;3.28;;;25.60;99.90;;;;;;5035621;28;20631;-82
2022/07/19 05:51:37;;;;;;;12.20;3.08;;;25.70;99.90;;;;;;5053892;28;20281;-82
2022/07/19 05:54:04;;;;;;;17.40;2.78;;;25.80;99.90;;;;;;5053676;28;20179;-82
2022/07/19 05:56:30;;;;;;;6.15;2.70;;;26.00;99.90;;;;;;5036590;28;20168;-82
2022/07/19 05:58:56;;;;;;;29.15;3.17;;;26.10;99.90;;;;;;5035882;28;20182;-82
2022/07/19 06:01:24;;;;;;;11.25;3.35;;;26.20;99.90;;;;;;5035747;28;20195;-83
2022/07/19 06:03:54;;;;;;;17.40;2.90;;;26.30;99.90;;;;;;5054012;28;20167;-85
2022/07/19 06:06:21;;;;;;;6.63;2.72;;;26.40;99.90;;;;;;5035594;28;20162;-84
2022/07/19 06:08:48;;;;;;;14.10;2.88;;;26.50;99.90;;;;;;5054242;28;20254;-83
2022/07/19 06:11:15;;;;;;;13.90;2.70;;;26.60;99.90;;;;;;5055988;28;20194;-84
2022/07/19 06:13:42;;;;;;;22.88;3.28;;;26.80;99.90;;;;;;5035690;28;20186;-83
2022/07/19 06:16:08;;;;;;;8.05;3.33;;;26.90;99.90;;;;;;5052869;28;20600;-83
2022/07/19 06:18:35;;;;;;;21.42;2.90;;;27.10;99.90;;;;;;5035461;28;20261;-84
2022/07/19 06:21:06;;;;;;;33.20;4.15;;;27.10;99.90;;;;;;5052914;28;20199;-84
2022/07/19 06:23:32;;;;;;;26.92;3.90;;;27.20;99.90;;;;;;5053387;28;20163;-83
2022/07/19 06:25:58;;;;;;;37.83;4.20;;;27.30;99.90;;;;;;5053022;28;20196;-82
2022/07/19 06:28:25;;;;;;;9.25;3.13;;;27.50;99.90;;;;;;5035314;28;20650;-81
2022/07/19 06:30:50;;;;;;;16.27;3.35;;;27.50;99.90;;;;;;5034871;28;20186;-83
2022/07/19 06:33:16;;;;;;;13.70;3.28;;;27.60;99.90;;;;;;5034971;28;20217;-83
2022/07/19 06:35:42;;;;;;;11.15;3.28;;;27.80;99.90;;;;;;5034963;28;20167;-85
2022/07/19 06:38:08;;;;;;;16.30;3.20;;;27.90;99.90;;;;;;5052972;28;20205;-84
2022/07/19 06:40:33;;;;;;;16.58;3.40;;;28.00;99.90;;;;;;5053141;28;20245;-83
2022/07/19 06:42:59;;;;;;;23.00;3.47;;;28.10;99.90;;;;;;5052936;28;20167;-85
2022/07/19 06:45:24;;;;;;;16.27;4.50;;;28.00;99.90;;;;;;5052625;28;20213;-83
2022/07/19 06:47:53;;;;;;;11.35;3.20;;;28.10;99.90;;;;;;5052777;28;20175;-84
2022/07/19 06:50:19;;;;;;;11.65;2.58;;;28.20;99.90;;;;;;5052582;28;20721;-84
2022/07/19 06:52:44;;;;;;;16.02;3.20;;;28.40;99.90;;;;;;5035092;28;20555;-83
2022/07/19 06:55:10;;;;;;;11.23;2.92;;;28.50;99.90;;;;;;5052473;28;20630;-83
2022/07/19 06:57:36;;;;;;;20.25;3.78;;;28.70;99.80;;;;;;5034679;28;20188;-84
2022/07/19 07:00:03;;;;;;;4.85;2.70;;;28.80;99.20;;;;;;5052899;28;20189;-83
2022/07/19 07:02:29;;;;;;;21.30;3.47;;;28.90;98.20;;;;;;5034503;28;20624;-83
2022/07/19 07:04:54;;;;;;;14.90;3.70;;;29.10;98.30;;;;;;5034977;28;20173;-82
2022/07/19 07:07:20;;;;;;;11.13;3.83;;;29.30;97.90;;;;;;5052896;28;20170;-84
2022/07/19 07:09:46;;;;;;;14.70;2.65;;;29.90;98.00;;;;;;5052621;28;20218;-83
2022/07/19 07:12:11;;;;;;;12.20;2.40;;;30.40;96.60;;;;;;5052736;28;20285;-82
2022/07/19 07:14:37;;;;;;;9.82;2.30;;;30.80;94.30;;;;;;5052376;28;20194;-82
2022/07/19 07:17:03;;;;;;;10.38;2.10;;;31.00;92.40;;;;;;5034626;28;20167;-83
2022/07/19 07:19:28;;;;;;;10.40;2.70;;;31.30;92.30;;;;;;5052681;28;20266;-85
2022/07/19 07:21:54;;;;;;;4.00;2.40;;;32.20;91.00;;;;;;5052149;28;20224;-84
2022/07/19 07:24:19;;;;;;;12.93;2.05;;;32.80;89.30;;;;;;5034684;28;20181;-85
2022/07/19 07:26:45;;;;;;;10.30;2.00;;;34.00;85.90;;;;;;5052436;28;20250;-84
2022/07/19 07:29:11;;;;;;;2.72;1.63;;;34.30;82.80;;;;;;5052538;28;20217;-84
2022/07/19 07:31:36;;;;;;;8.40;1.88;;;34.80;80.80;;;;;;5034439;28;20203;-83
2022/07/19 07:34:02;;;;;;;2.22;1.60;;;35.40;79.40;;;;;;5052956;28;20175;-84
2022/07/19 07:36:28;;;;;;;6.32;1.70;;;36.10;77.30;;;;;;5052727;28;20166;-84
2022/07/19 07:38:54;;;;;;;3.42;1.65;;;36.60;75.70;;;;;;5052534;28;20539;-84
2022/07/19 07:41:19;;;;;;;3.47;2.45;;;36.70;76.70;;;;;;5034331;28;20248;-83
2022/07/19 07:43:45;;;;;;;3.60;1.67;;;36.40;74.60;;;;;;5052381;28;20213;-85
2022/07/19 07:46:11;;;;;;;5.95;1.92;;;37.10;73.80;;;;;;5052030;28;20171;-83
2022/07/19 07:48:38;;;;;;;4.75;1.35;;;37.60;73.40;;;;;;5052093;28;20174;-83
2022/07/19 07:51:03;;;;;;;6.03;1.98;;;36.90;73.20;;;;;;5052201;28;20205;-83
2022/07/19 07:53:30;;;;;;;7.57;1.60;;;36.50;73.30;;;;;;5052097;28;20738;-83
2022/07/19 07:55:56;;;;;;;2.03;1.48;;;35.40;73.40;;;;;;5034476;28;20244;-84
2022/07/19 07:58:21;;;;;;;6.63;1.65;;;34.90;74.80;;;;;;5034663;28;20200;-83
2022/07/19 08:00:47;;;;;;;6.35;2.00;;;34.60;75.20;;;;;;5054052;28;20186;-83
2022/07/19 08:03:12;;;;;;;3.85;1.95;;;34.60;74.30;;;;;;5038430;28;20166;-84
2022/07/19 08:05:39;;;;;;;6.10;2.80;;;34.30;74.80;;;;;;5065935;28;20178;-83
2022/07/19 08:08:05;;;;;;;5.95;2.15;;;34.20;75.40;;;;;;5057748;28;20159;-84
2022/07/19 08:10:32;;;;;;;10.85;1.80;;;34.00;77.20;;;;;;5075902;28;20262;-83
2022/07/19 08:12:58;;;;;;;10.45;2.00;;;33.90;77.00;;;;;;5040071;28;20217;-86
2022/07/19 08:15:25;;;;;;;7.47;2.38;;;33.70;76.70;;;;;;5057833;28;20225;-85
2022/07/19 08:17:50;;;;;;;9.38;1.83;;;33.30;76.40;;;;;;5039524;28;20163;-86
2022/07/19 08:20:16;;;;;;;4.47;1.67;;;33.40;75.60;;;;;;5059151;28;20191;-83
2022/07/19 08:22:41;;;;;;;3.40;2.10;;;33.50;76.50;;;;;;5056157;28;20232;-84
2022/07/19 08:25:08;;;;;;;18.45;2.42;;;33.20;76.00;;;;;;5038812;28;20175;-84
2022/07/19 08:27:33;;;;;;;8.07;2.05;;;33.10;78.20;;;;;;5047948;28;20170;-83
2022/07/19 08:30:00;;;;;;;14.60;2.90;;;33.00;75.90;;;;;;5040552;28;20182;-84
2022/07/19 08:32:26;;;;;;;6.95;2.17;;;33.10;75.70;;;;;;5057539;28;20203;-85
2022/07/19 08:34:51;;;;;;;7.45;2.38;;;33.20;77.40;;;;;;5055832;28;20171;-83
2022/07/19 08:37:17;;;;;;;4.45;1.90;;;33.20;76.50;;;;;;5042269;28;20537;-85
2022/07/19 08:39:43;;;;;;;17.70;2.45;;;33.30;78.30;;;;;;5038109;28;20185;-83
2022/07/19 08:42:09;;;;;;;10.95;1.98;;;33.40;76.70;;;;;;5055098;28;20236;-83
2022/07/19 08:44:38;;;;;;;12.35;2.50;;;33.40;76.20;;;;;;5037851;28;20248;-84
2022/07/19 08:47:05;;;;;;;3.85;2.10;;;33.60;75.90;;;;;;5055330;28;20684;-83
2022/07/19 08:49:30;;;;;;;3.28;1.85;;;33.70;75.70;;;;;;5055522;28;20159;-84
2022/07/19 08:51:57;;;;;;;7.45;1.90;;;33.70;75.50;;;;;;5038137;28;20702;-83
2022/07/19 08:54:23;;;;;;;5.80;2.30;;;33.70;76.50;;;;;;5056260;28;20521;-83
2022/07/19 08:59:33;;;;;;;4.47;2.20;;;33.80;76.70;;;;;;5055034;28;20563;-83
2022/07/19 09:01:58;;;;;;;5.35;2.13;;;33.80;77.90;;;;;;5055060;28;20641;-85
2022/07/19 09:04:25;;;;;;;10.40;2.33;;;33.80;75.80;;;;;;5037529;28;20171;-84
2022/07/19 09:06:56;;;;;;;14.75;1.90;;;34.00;75.90;;;;;;5059358;28;20159;-85
2022/07/19 09:09:26;;;;;;;6.97;1.98;;;34.00;76.70;;;;;;5036945;28;20186;-83
2022/07/19 09:11:53;;;;;;;8.95;2.00;;;34.00;74.30;;;;;;5053571;28;20285;-83
2022/07/19 09:14:25;;;;;;;7.72;1.60;;;34.00;74.30;;;;;;5055566;28;20208;-83
2022/07/19 09:16:57;;;;;;;9.65;2.10;;;34.10;74.70;;;;;;5054499;28;20162;-83
2022/07/19 09:19:24;;;;;;;2.75;1.92;;;34.20;74.20;;;;;;5054399;28;20175;-82
2022/07/19 09:21:59;;;;;;;7.05;1.85;;;34.40;73.50;;;;;;5037164;28;20327;-83
2022/07/19 09:24:26;;;;;;;6.40;2.63;;;34.30;73.60;;;;;;5036465;28;20251;-82
2022/07/19 09:26:55;;;;;;;10.13;2.38;;;34.40;73.90;;;;;;5036390;28;20166;-85
2022/07/19 09:29:21;;;;;;;8.45;2.55;;;34.40;73.80;;;;;;5054499;28;20174;-84
2022/07/19 09:31:59;;;;;;;10.73;2.20;;;34.40;73.40;;;;;;5036139;28;20233;-83
2022/07/19 09:34:33;;;;;;;6.95;2.53;;;34.60;74.90;;;;;;5036431;28;20536;-83
2022/07/19 09:37:17;;;;;;;12.73;2.13;;;34.60;73.80;;;;;;5036280;28;20169;-83
2022/07/19 09:39:47;;;;;;;7.85;2.25;;;34.70;72.10;;;;;;5036245;28;20195;-83
2022/07/19 09:42:15;;;;;;;6.63;2.00;;;34.70;72.90;;;;;;5036107;28;20174;-83
2022/07/19 09:44:41;;;;;;;10.88;1.98;;;34.60;71.90;;;;;;5035651;28;20213;-82
2022/07/19 09:47:06;;;;;;;9.25;2.10;;;34.80;72.20;;;;;;5035816;28;20182;-82
2022/07/19 09:49:32;;;;;;;4.85;1.60;;;34.80;71.40;;;;;;5053902;28;20182;-83
2022/07/19 09:51:58;;;;;;;11.95;1.88;;;34.80;72.50;;;;;;5053471;28;20529;-83
2022/07/19 09:54:26;;;;;;;15.27;2.03;;;34.70;72.10;;;;;;5035859;28;20174;-86
2022/07/19 09:56:55;;;;;;;11.20;2.17;;;34.80;71.70;;;;;;5035650;28;20167;-84
2022/07/19 09:59:22;;;;;;;5.40;1.70;;;35.00;72.20;;;;;;5035721;28;20183;-84
2022/07/19 10:01:51;;;;;;;3.70;1.80;;;35.00;70.30;;;;;;5054834;28;20224;-83
2022/07/19 10:04:21;;;;;;;2.95;2.28;;;35.10;70.60;;;;;;5053217;28;20238;-84
2022/07/19 10:06:49;;;;;;;8.95;1.67;;;35.20;71.20;;;;;;5035704;28;20242;-85
2022/07/19 10:09:17;;;;;;;3.17;1.75;;;35.20;70.20;;;;;;5035530;28;20181;-85
2022/07/19 10:11:43;;;;;;;5.13;2.17;;;35.30;69.60;;;;;;5054261;28;20222;-82
2022/07/19 10:14:11;;;;;;;5.45;1.90;;;35.40;70.50;;;;;;5054154;28;20181;-85
2022/07/19 10:16:49;;;;;;;9.00;1.90;;;35.40;70.30;;;;;;5035643;28;20524;-83
2022/07/19 10:19:25;;;;;;;10.93;2.45;;;35.50;70.90;;;;;;5053211;28;20251;-83
2022/07/19 10:21:51;;;;;;;5.55;1.70;;;35.60;69.00;;;;;;5053573;28;20236;-83
2022/07/19 10:24:48;;;;;;;13.93;2.35;;;35.60;68.40;;;;;;5053187;28;20166;-83
2022/07/19 10:27:15;;;;;;;11.50;2.33;;;35.50;67.60;;;;;;5039404;28;20249;-84
2022/07/19 10:29:42;;;;;;;7.63;2.03;;;35.50;67.40;;;;;;5053068;28;20190;-84
2022/07/19 10:32:10;;;;;;;4.90;1.70;;;35.50;67.00;;;;;;5052547;28;20199;-83
2022/07/19 10:34:36;;;;;;;3.70;2.00;;;35.60;67.60;;;;;;5036582;28;20186;-83
2022/07/19 10:37:03;;;;;;;2.15;1.80;;;35.80;66.80;;;;;;5053596;28;20177;-84
2022/07/19 10:39:34;;;;;;;7.90;1.48;;;35.90;66.50;;;;;;5036309;28;20253;-85
2022/07/19 10:42:09;;;;;;;9.50;1.95;;;35.90;66.40;;;;;;5053709;28;20162;-83
2022/07/19 10:44:55;;;;;;;6.20;1.80;;;35.90;67.80;;;;;;5035286;28;20174;-83
2022/07/19 10:47:37;;;;;;;5.10;1.80;;;35.90;66.10;;;;;;5034825;28;20265;-83
2022/07/19 10:50:09;;;;;;;8.50;1.63;;;36.00;65.30;;;;;;5034822;28;20201;-83
2022/07/19 10:52:40;;;;;;;6.80;2.42;;;36.00;65.20;;;;;;5035260;28;20293;-84
2022/07/19 10:55:22;;;;;;;5.45;1.58;;;36.00;65.70;;;;;;5035511;28;20225;-85
2022/07/19 10:57:52;;;;;;;2.28;1.67;;;36.10;65.30;;;;;;5035303;28;20639;-83
2022/07/19 11:00:26;;;;;;;2.67;1.85;;;36.20;65.10;;;;;;5035081;28;20191;-85
2022/07/19 11:03:12;;;;;;;6.90;1.85;;;36.20;64.40;;;;;;5053255;28;20274;-83
2022/07/19 11:05:46;;;;;;;6.05;2.28;;;36.20;63.50;;;;;;5035552;28;20170;-85
2022/07/19 11:08:12;;;;;;;16.80;1.88;;;36.20;63.50;;;;;;5053505;28;20162;-83
2022/07/19 11:10:38;;;;;;;7.78;1.73;;;36.20;64.20;;;;;;5053287;28;20566;-84
2022/07/19 11:13:05;;;;;;;3.20;1.90;;;36.20;64.50;;;;;;5035196;28;20212;-83
2022/07/19 11:15:30;;;;;;;5.30;2.28;;;36.30;63.80;;;;;;5035010;28;20213;-85
2022/07/19 11:18:06;;;;;;;9.75;2.20;;;36.40;63.70;;;;;;5053402;28;20159;-84
2022/07/19 11:20:36;;;;;;;5.57;1.67;;;36.40;62.90;;;;;;5053623;28;20236;-84
2022/07/19 11:23:06;;;;;;;3.17;1.98;;;36.30;63.20;;;;;;5053375;28;20189;-84
2022/07/19 11:25:40;;;;;;;2.53;1.85;;;36.30;63.90;;;;;;5035536;28;20258;-84
2022/07/19 11:28:06;;;;;;;12.27;1.75;;;36.50;62.60;;;;;;5035531;28;20217;-85
2022/07/19 11:30:34;;;;;;;15.30;2.03;;;36.50;62.40;;;;;;5035034;28;20286;-84
2022/07/19 11:33:02;;;;;;;14.73;2.25;;;36.70;63.60;;;;;;5035133;28;20260;-83
2022/07/19 11:35:28;;;;;;;3.67;1.80;;;36.70;63.20;;;;;;5055343;28;20170;-84
2022/07/19 11:37:56;;;;;;;3.92;2.08;;;36.70;62.10;;;;;;5057063;28;20174;-85
2022/07/19 11:40:23;;;;;;;8.57;2.00;;;36.70;63.20;;;;;;5057166;28;20178;-83
2022/07/19 11:42:49;;;;;;;11.13;1.90;;;36.70;63.10;;;;;;5056803;28;20171;-83
2022/07/19 11:45:25;;;;;;;4.28;1.73;;;36.80;62.70;;;;;;5057031;28;20155;-85
2022/07/19 11:47:52;;;;;;;3.50;1.90;;;36.90;63.40;;;;;;5038805;28;20635;-85
2022/07/19 11:50:21;;;;;;;15.23;2.00;;;36.90;62.70;;;;;;5056309;28;20195;-84
2022/07/19 11:52:56;;;;;;;21.08;1.95;;;36.90;63.40;;;;;;5038794;28;20209;-84
2022/07/19 11:55:24;;;;;;;9.20;1.85;;;36.90;64.70;;;;;;5038745;28;20173;-85
2022/07/19 11:57:50;;;;;;;8.30;2.08;;;37.00;62.50;;;;;;5039582;28;20245;-86
2022/07/19 12:00:18;;;;;;;2.35;2.13;;;37.00;63.00;;;;;;5061476;28;20181;-83
2022/07/19 12:02:56;;;;;;;2.80;2.20;;;37.10;61.80;;;;;;5050388;28;20161;-84
2022/07/19 12:05:22;;;;;;;9.40;2.53;;;37.10;62.00;;;;;;5045230;28;20178;-85
2022/07/19 12:07:49;;;;;;;3.22;1.90;;;36.90;62.40;;;;;;5057492;28;20166;-86
2022/07/19 12:10:44;;;;;;;7.22;2.00;;;36.80;62.70;;;;;;5038947;28;20240;-85
2022/07/19 12:13:41;;;;;;;10.40;2.10;;;36.90;63.20;;;;;;5062496;28;20208;-83
2022/07/19 12:16:12;;;;;;;6.60;2.25;;;36.80;62.70;;;;;;5056862;28;20179;-83
2022/07/19 12:18:51;;;;;;;21.75;2.60;;;36.80;62.00;;;;;;5067389;28;20163;-85
2022/07/19 12:21:41;;;;;;;14.95;2.05;;;36.90;62.20;;;;;;5037501;28;20213;-85
2022/07/19 12:24:26;;;;;;;10.82;2.20;;;36.90;61.50;;;;;;5057978;28;20635;-85
2022/07/19 12:26:51;;;;;;;5.85;2.10;;;36.90;61.20;;;;;;5060868;28;20171;-84
2022/07/19 12:29:24;;;;;;;15.25;2.15;;;36.80;61.20;;;;;;5062228;28;20184;-83
2022/07/19 12:31:53;;;;;;;10.20;2.30;;;36.80;61.50;;;;;;5042864;28;20202;-83
2022/07/19 12:34:19;;;;;;;11.88;2.67;;;36.90;61.20;;;;;;5040908;28;20174;-86
2022/07/19 12:36:45;;;;;;;3.72;2.33;;;36.90;61.20;;;;;;5045268;28;20186;-84
2022/07/19 12:39:23;;;;;;;3.13;1.77;;;36.90;61.70;;;;;;5060784;28;20181;-84
2022/07/19 12:42:04;;;;;;;11.65;2.30;;;37.10;60.80;;;;;;5051352;28;20223;-84
2022/07/19 12:44:32;;;;;;;11.63;2.10;;;37.20;61.10;;;;;;5059443;28;20230;-84
2022/07/19 12:46:58;;;;;;;11.25;2.03;;;37.20;61.10;;;;;;5074176;28;20198;-84
2022/07/19 12:49:45;;;;;;;13.18;2.05;;;37.30;60.60;;;;;;5048213;28;20175;-84